DGAA Airport Information

Runway Information
Runway 03 Length 11165 ft width 200 ft
Elevation 177 ft Threshold ft Heading 22
Runway 21 Length 11165 ft Width 200 ft
Elevation 197 ft Threshold 1349 ft Heading 202
Airport Frequencies
Type APP Name ACCRA APP Frequency 119.5 MHZ
Type GND Name ACCRA GND Frequency 121.9 MHZ
Type TWR Name ACCRA TWR Frequency 119.1 MHZ
Airport Navaids
Type NDB Name Accra Frequency 409 KHZ
Type VOR-DME Name Accra Frequency 113100 KHZ
Airport Weather Information & NOTAM
ADDS - METARS form results

(1548 UTC 11 August 2022)
Data provider http://aviationweather.gov/metar/data/
 
Forecast for: DGAA (ACCRA/KOTOKA INT, GH)
Text: TAF DGAA 111100Z 1112/1218 22018KT 9999 FEW020
Forecast period: 1200 UTC 11 August 2022 to 0000 UTC 12 August 2022
Forecast type: FROM: standard forecast or significant change
Winds: from the SW (220 degrees) at 21 MPH (18 knots; 9.3 m/s)
Visibility: 6 or more miles (10+ km)
Ceiling: at least 12,000 feet AGL
Clouds: few clouds at 2000 feet AGL
Weather: no significant weather forecast for this period
Text: BECMG 1200/1202 25007KT
Forecast period: 0000 to 1800 UTC 12 August 2022
Forecast type: BECOMING: Conditions expected to become as follows by 0200 UTC 12 August 2022
Winds: from the WSW (250 degrees) at 8 MPH (7 knots; 3.6 m/s)
Visibility: 6 or more miles (10+ km)
Ceiling: at least 12,000 feet AGL
Clouds: few clouds at 2000 feet AGL
Weather: no significant weather forecast for this period